Time,TemperatureF,DewpointF,PressureIn,WindDirection,WindDirectionDegrees,WindSpeedMPH,WindSpeedGustMPH,Humidity,HourlyPrecipIn,Conditions,Clouds,dailyrainin,SoftwareType,DateUTC
2013-08-18 00:13:00,45.9,44.5,30.26,NE,45,0.0,-999.0,95,-99.99,,,0.00,Acu-Link.com,2013-08-18 04:13:00,
2013-08-18 00:29:00,45.5,44.2,30.24,NW,315,0.0,-999.0,95,-99.99,,,0.00,Acu-Link.com,2013-08-18 04:29:00,
2013-08-18 00:44:00,45.3,44.0,30.25,NE,45,0.0,-999.0,95,-99.99,,,0.00,Acu-Link.com,2013-08-18 04:44:00,
2013-08-18 00:59:00,45.0,43.7,30.25,West,270,0.0,-999.0,95,-99.99,,,0.00,Acu-Link.com,2013-08-18 04:59:00,
2013-08-18 01:14:00,44.4,43.1,30.24,NNE,22,0.0,-999.0,95,-99.99,,,0.00,Acu-Link.com,2013-08-18 05:14:00,
2013-08-18 01:30:00,44.4,43.1,30.24,NNE,22,0.0,-999.0,95,-99.99,,,0.00,Acu-Link.com,2013-08-18 05:30:00,
2013-08-18 01:45:00,43.9,42.8,30.25,NE,45,0.0,-999.0,96,-99.99,,,0.00,Acu-Link.com,2013-08-18 05:45:00,
2013-08-18 02:00:00,43.7,42.9,30.25,NNE,22,0.0,-999.0,97,-99.99,,,0.00,Acu-Link.com,2013-08-18 06:00:00,
2013-08-18 02:15:00,43.5,42.7,30.25,NNE,22,1.1,-999.0,97,-99.99,,,0.00,Acu-Link.com,2013-08-18 06:15:00,
2013-08-18 02:30:00,43.9,43.1,30.25,NNE,22,0.0,-999.0,97,-99.99,,,0.00,Acu-Link.com,2013-08-18 06:30:00,
2013-08-18 02:45:00,44.8,44.3,30.25,NNE,22,0.0,-999.0,98,-99.99,,,0.00,Acu-Link.com,2013-08-18 06:45:00,
2013-08-18 03:00:00,44.2,43.7,30.25,NNE,22,0.0,-999.0,98,-99.99,,,0.00,Acu-Link.com,2013-08-18 07:00:00,
2013-08-18 03:16:00,43.7,43.2,30.26,North,0,0.0,-999.0,98,-99.99,,,0.00,Acu-Link.com,2013-08-18 07:16:00,
2013-08-18 03:31:00,43.3,42.8,30.24,NNE,22,0.0,-999.0,98,-99.99,,,0.00,Acu-Link.com,2013-08-18 07:31:00,
2013-08-18 03:46:00,42.6,42.1,30.26,NW,315,0.0,-999.0,98,-99.99,,,0.00,Acu-Link.com,2013-08-18 07:46:00,
2013-08-18 04:01:00,43.0,42.7,30.25,NNE,22,0.0,-999.0,99,-99.99,,,0.00,Acu-Link.com,2013-08-18 08:01:00,
2013-08-18 04:17:00,43.2,42.9,30.25,NNE,22,0.0,-999.0,99,-99.99,,,0.00,Acu-Link.com,2013-08-18 08:17:00,
2013-08-18 04:32:00,42.6,42.3,30.25,North,0,0.0,-999.0,99,-99.99,,,0.00,Acu-Link.com,2013-08-18 08:32:00,
2013-08-18 04:47:00,42.3,42.0,30.26,NNW,337,0.0,-999.0,99,-99.99,,,0.00,Acu-Link.com,2013-08-18 08:47:00,
2013-08-18 05:02:00,42.4,42.1,30.25,WNW,292,0.0,-999.0,99,-99.99,,,0.00,Acu-Link.com,2013-08-18 09:02:00,
2013-08-18 05:17:00,41.7,41.4,30.26,NNE,22,0.0,-999.0,99,-99.99,,,0.00,Acu-Link.com,2013-08-18 09:17:00,
2013-08-18 05:32:00,43.3,43.0,30.27,NE,45,0.0,-999.0,99,-99.99,,,0.00,Acu-Link.com,2013-08-18 09:32:00,
2013-08-18 05:48:00,43.9,43.6,30.27,NNE,22,0.0,-999.0,99,-99.99,,,0.00,Acu-Link.com,2013-08-18 09:48:00,
2013-08-18 06:03:00,44.1,43.8,30.27,NE,45,0.0,-999.0,99,-99.99,,,0.00,Acu-Link.com,2013-08-18 10:03:00,
2013-08-18 06:18:00,44.6,44.3,30.26,NW,315,1.7,-999.0,99,-99.99,,,0.00,Acu-Link.com,2013-08-18 10:18:00,
2013-08-18 06:33:00,44.6,44.3,30.26,East,90,0.0,-999.0,99,-99.99,,,0.00,Acu-Link.com,2013-08-18 10:33:00,
2013-08-18 06:48:00,45.1,44.8,30.26,NNW,337,0.0,-999.0,99,-99.99,,,0.00,Acu-Link.com,2013-08-18 10:48:00,
2013-08-18 07:04:00,46.8,46.5,30.25,NNE,22,0.0,-999.0,99,-99.99,,,0.00,Acu-Link.com,2013-08-18 11:04:00,
2013-08-18 07:19:00,49.6,49.1,30.25,North,0,0.0,-999.0,98,-99.99,,,0.00,Acu-Link.com,2013-08-18 11:19:00,
2013-08-18 07:35:00,53.1,51.4,30.25,North,0,0.0,-999.0,94,-99.99,,,0.00,Acu-Link.com,2013-08-18 11:35:00,
2013-08-18 07:50:00,52.2,50.2,30.25,SW,225,1.1,-999.0,93,-99.99,,,0.00,Acu-Link.com,2013-08-18 11:50:00,
2013-08-18 08:05:00,52.5,49.9,30.25,WSW,247,1.7,-999.0,91,-99.99,,,0.00,Acu-Link.com,2013-08-18 12:05:00,
2013-08-18 08:20:00,53.8,50.9,30.23,SW,225,2.2,-999.0,90,-99.99,,,0.00,Acu-Link.com,2013-08-18 12:20:00,
2013-08-18 08:38:00,54.7,51.8,30.25,SW,225,2.7,-999.0,90,-99.99,,,0.00,Acu-Link.com,2013-08-18 12:38:00,
2013-08-18 08:54:00,60.6,53.0,30.24,South,180,0.0,-999.0,76,-99.99,,,0.00,Acu-Link.com,2013-08-18 12:54:00,
2013-08-18 09:09:00,60.8,52.8,30.24,South,180,0.0,-999.0,75,-99.99,,,0.00,Acu-Link.com,2013-08-18 13:09:00,
2013-08-18 09:26:00,61.2,52.5,30.23,South,180,2.2,-999.0,73,-99.99,,,0.00,Acu-Link.com,2013-08-18 13:26:00,
2013-08-18 09:41:00,63.5,52.3,30.24,SSW,202,0.0,-999.0,67,-99.99,,,0.00,Acu-Link.com,2013-08-18 13:41:00,
2013-08-18 09:57:00,64.4,52.4,30.22,SW,225,2.2,-999.0,65,-99.99,,,0.00,Acu-Link.com,2013-08-18 13:57:00,
2013-08-18 10:12:00,63.9,52.7,30.23,NNW,337,1.7,-999.0,67,-99.99,,,0.00,Acu-Link.com,2013-08-18 14:12:00,
2013-08-18 10:27:00,64.6,53.4,30.22,SW,225,6.3,-999.0,67,-99.99,,,0.00,Acu-Link.com,2013-08-18 14:27:00,
2013-08-18 10:43:00,65.7,54.4,30.23,SW,225,3.2,-999.0,67,-99.99,,,0.00,Acu-Link.com,2013-08-18 14:43:00,
2013-08-18 10:58:00,66.4,54.3,30.21,SW,225,5.8,-999.0,65,-99.99,,,0.00,Acu-Link.com,2013-08-18 14:58:00,
2013-08-18 11:13:00,65.7,53.6,30.22,WSW,247,3.2,-999.0,65,-99.99,,,0.00,Acu-Link.com,2013-08-18 15:13:00,
2013-08-18 11:28:00,66.4,54.7,30.20,SW,225,6.8,-999.0,66,-99.99,,,0.00,Acu-Link.com,2013-08-18 15:28:00,
2013-08-18 11:44:00,66.9,54.7,30.19,South,180,1.1,-999.0,65,-99.99,,,0.00,Acu-Link.com,2013-08-18 15:44:00,
2013-08-18 11:59:00,68.2,54.2,30.20,WSW,247,1.7,-999.0,61,-99.99,,,0.00,Acu-Link.com,2013-08-18 15:59:00,
2013-08-18 12:14:00,68.2,53.8,30.19,SSW,202,2.7,-999.0,60,-99.99,,,0.00,Acu-Link.com,2013-08-18 16:14:00,
2013-08-18 12:29:00,70.9,54.9,30.19,NNW,337,0.0,-999.0,57,-99.99,,,0.00,Acu-Link.com,2013-08-18 16:29:00,
2013-08-18 12:45:00,71.4,55.4,30.17,WSW,247,0.0,-999.0,57,-99.99,,,0.00,Acu-Link.com,2013-08-18 16:45:00,
2013-08-18 13:00:00,70.3,54.3,30.18,WSW,247,12.5,-999.0,57,-99.99,,,0.00,Acu-Link.com,2013-08-18 17:00:00,
2013-08-18 13:15:00,71.2,53.2,30.18,SW,225,2.7,-999.0,53,-99.99,,,0.00,Acu-Link.com,2013-08-18 17:15:00,
2013-08-18 13:30:00,72.7,55.6,30.16,SW,225,4.2,-999.0,55,-99.99,,,0.00,Acu-Link.com,2013-08-18 17:30:00,
2013-08-18 13:45:00,72.9,55.3,30.16,SSW,202,2.7,-999.0,54,-99.99,,,0.00,Acu-Link.com,2013-08-18 17:45:00,
2013-08-18 14:01:00,72.9,55.3,30.13,West,270,6.3,-999.0,54,-99.99,,,0.00,Acu-Link.com,2013-08-18 18:01:00,
2013-08-18 14:16:00,71.4,54.4,30.13,SW,225,4.2,-999.0,55,-99.99,,,0.00,Acu-Link.com,2013-08-18 18:16:00,
2013-08-18 14:31:00,73.0,55.9,30.11,SW,225,8.3,-999.0,55,-99.99,,,0.00,Acu-Link.com,2013-08-18 18:31:00,
2013-08-18 14:46:00,73.2,54.0,30.11,West,270,5.3,-999.0,51,-99.99,,,0.00,Acu-Link.com,2013-08-18 18:46:00,
2013-08-18 15:01:00,74.3,53.3,30.10,SW,225,6.3,-999.0,48,-99.99,,,0.00,Acu-Link.com,2013-08-18 19:01:00,
2013-08-18 15:17:00,75.9,55.4,30.10,SW,225,7.8,-999.0,49,-99.99,,,0.00,Acu-Link.com,2013-08-18 19:17:00,
2013-08-18 15:32:00,73.9,53.0,30.10,SW,225,4.2,-999.0,48,-99.99,,,0.00,Acu-Link.com,2013-08-18 19:32:00,
2013-08-18 15:47:00,75.2,54.1,30.09,West,270,6.8,-999.0,48,-99.99,,,0.00,Acu-Link.com,2013-08-18 19:47:00,
2013-08-18 16:03:00,74.7,53.1,30.08,West,270,6.8,-999.0,47,-99.99,,,0.00,Acu-Link.com,2013-08-18 20:03:00,
2013-08-18 16:18:00,75.2,54.1,30.07,NW,315,1.1,-999.0,48,-99.99,,,0.00,Acu-Link.com,2013-08-18 20:18:00,
2013-08-18 16:33:00,76.3,53.4,30.06,SW,225,2.7,-999.0,45,-99.99,,,0.00,Acu-Link.com,2013-08-18 20:33:00,
2013-08-18 16:48:00,74.8,53.2,30.06,West,270,6.8,-999.0,47,-99.99,,,0.00,Acu-Link.com,2013-08-18 20:48:00,
2013-08-18 17:03:00,73.9,53.0,30.06,West,270,4.7,-999.0,48,-99.99,,,0.00,Acu-Link.com,2013-08-18 21:03:00,
2013-08-18 17:19:00,73.6,53.2,30.05,SW,225,4.2,-999.0,49,-99.99,,,0.00,Acu-Link.com,2013-08-18 21:19:00,
2013-08-18 17:34:00,72.9,52.6,30.05,West,270,5.8,-999.0,49,-99.99,,,0.00,Acu-Link.com,2013-08-18 21:34:00,
2013-08-18 17:49:00,73.2,52.9,30.04,West,270,6.8,-999.0,49,-99.99,,,0.00,Acu-Link.com,2013-08-18 21:49:00,
2013-08-18 18:04:00,74.5,54.1,30.03,SW,225,6.8,-999.0,49,-99.99,,,0.00,Acu-Link.com,2013-08-18 22:04:00,
2013-08-18 18:19:00,72.7,52.4,30.01,SW,225,8.9,-999.0,49,-99.99,,,0.00,Acu-Link.com,2013-08-18 22:19:00,
2013-08-18 18:35:00,72.5,52.8,30.00,West,270,3.7,-999.0,50,-99.99,,,0.00,Acu-Link.com,2013-08-18 22:35:00,
2013-08-18 18:50:00,71.2,53.2,30.01,WSW,247,3.7,-999.0,53,-99.99,,,0.00,Acu-Link.com,2013-08-18 22:50:00,
2013-08-18 19:05:00,69.1,52.7,30.01,SW,225,4.7,-999.0,56,-99.99,,,0.00,Acu-Link.com,2013-08-18 23:05:00,
2013-08-18 19:20:00,67.6,53.7,30.00,NNW,337,2.7,-999.0,61,-99.99,,,0.00,Acu-Link.com,2013-08-18 23:20:00,
2013-08-18 19:36:00,65.8,54.1,30.03,West,270,1.1,-999.0,66,-99.99,,,0.00,Acu-Link.com,2013-08-18 23:36:00,
2013-08-18 19:51:00,64.4,53.2,30.02,NW,315,1.1,-999.0,67,-99.99,,,0.00,Acu-Link.com,2013-08-18 23:51:00,
2013-08-18 20:06:00,63.0,53.1,30.02,WNW,292,1.7,-999.0,70,-99.99,,,0.00,Acu-Link.com,2013-08-19 00:06:00,
2013-08-18 20:21:00,62.2,52.7,30.03,NNW,337,0.0,-999.0,71,-99.99,,,0.00,Acu-Link.com,2013-08-19 00:21:00,
2013-08-18 20:36:00,60.6,52.3,30.04,NNW,337,2.7,-999.0,74,-99.99,,,0.00,Acu-Link.com,2013-08-19 00:36:00,
2013-08-18 20:52:00,59.4,51.8,30.04,NNW,337,0.0,-999.0,76,-99.99,,,0.00,Acu-Link.com,2013-08-19 00:52:00,
2013-08-18 21:07:00,58.3,51.5,30.05,NNE,22,0.0,-999.0,78,-99.99,,,0.00,Acu-Link.com,2013-08-19 01:07:00,
2013-08-18 22:01:00,54.9,49.5,30.05,NNE,22,0.0,-999.0,82,-99.99,,,0.00,Acu-Link.com,2013-08-19 02:01:00,
2013-08-18 22:16:00,54.0,49.3,30.04,West,270,0.0,-999.0,84,-99.99,,,0.00,Acu-Link.com,2013-08-19 02:16:00,
2013-08-18 22:31:00,53.1,48.7,30.04,NE,45,0.0,-999.0,85,-99.99,,,0.00,Acu-Link.com,2013-08-19 02:31:00,
2013-08-18 22:47:00,52.9,49.1,30.04,NE,45,0.0,-999.0,87,-99.99,,,0.00,Acu-Link.com,2013-08-19 02:47:00,
2013-08-18 23:02:00,52.5,49.0,30.04,NNW,337,1.1,-999.0,88,-99.99,,,0.00,Acu-Link.com,2013-08-19 03:02:00,
2013-08-18 23:17:00,52.0,48.9,30.05,ENE,67,0.0,-999.0,89,-99.99,,,0.00,Acu-Link.com,2013-08-19 03:17:00,
2013-08-18 23:32:00,52.5,50.2,30.05,East,90,0.0,-999.0,92,-99.99,,,0.00,Acu-Link.com,2013-08-19 03:32:00,
2013-08-18 23:47:00,52.3,50.0,30.05,NNW,337,0.0,-999.0,92,-99.99,,,0.00,Acu-Link.com,2013-08-19 03:47:00,